sensor_id;sensor_type;location;lat;lon;timestamp;P1;durP1;ratioP1;P2;durP2;ratioP2
78365;SDS011;67641;59.864;30.464;2023-06-14T00:00:51;7.75;;;4.88;;
78365;SDS011;67641;59.864;30.464;2023-06-14T00:23:30;6.78;;;4.85;;
78365;SDS011;67641;59.864;30.464;2023-06-14T00:25:56;8.05;;;4.55;;
78365;SDS011;67641;59.864;30.464;2023-06-14T00:28:23;6.63;;;4.85;;
78365;SDS011;67641;59.864;30.464;2023-06-14T00:30:50;7.13;;;4.28;;
78365;SDS011;67641;59.864;30.464;2023-06-14T00:33:16;6.90;;;4.80;;
78365;SDS011;67641;59.864;30.464;2023-06-14T00:36:42;8.05;;;4.35;;
78365;SDS011;67641;59.864;30.464;2023-06-14T00:39:09;7.28;;;4.97;;
78365;SDS011;67641;59.864;30.464;2023-06-14T00:41:36;7.28;;;4.60;;
78365;SDS011;67641;59.864;30.464;2023-06-14T00:44:02;7.90;;;4.88;;
78365;SDS011;67641;59.864;30.464;2023-06-14T00:46:30;6.20;;;4.13;;
78365;SDS011;67641;59.864;30.464;2023-06-14T00:48:57;5.85;;;4.50;;
78365;SDS011;67641;59.864;30.464;2023-06-14T00:51:26;6.05;;;4.65;;
78365;SDS011;67641;59.864;30.464;2023-06-14T00:56:31;6.13;;;4.57;;
78365;SDS011;67641;59.864;30.464;2023-06-14T00:58:58;7.80;;;4.45;;
78365;SDS011;67641;59.864;30.464;2023-06-14T01:01:25;7.93;;;4.65;;
78365;SDS011;67641;59.864;30.464;2023-06-14T01:03:54;5.65;;;4.28;;
78365;SDS011;67641;59.864;30.464;2023-06-14T01:06:32;7.25;;;4.43;;
78365;SDS011;67641;59.864;30.464;2023-06-14T01:09:24;6.63;;;4.32;;
78365;SDS011;67641;59.864;30.464;2023-06-14T01:16:14;6.75;;;4.53;;
78365;SDS011;67641;59.864;30.464;2023-06-14T01:18:41;5.70;;;4.68;;
78365;SDS011;67641;59.864;30.464;2023-06-14T01:21:20;6.68;;;4.65;;
78365;SDS011;67641;59.864;30.464;2023-06-14T01:23:48;6.68;;;4.47;;
78365;SDS011;67641;59.864;30.464;2023-06-14T01:26:19;5.60;;;4.30;;
78365;SDS011;67641;59.864;30.464;2023-06-14T01:28:49;5.15;;;4.28;;
78365;SDS011;67641;59.864;30.464;2023-06-14T01:36:11;6.35;;;3.88;;
78365;SDS011;67641;59.864;30.464;2023-06-14T01:38:39;7.00;;;4.45;;
78365;SDS011;67641;59.864;30.464;2023-06-14T01:41:08;4.95;;;3.80;;
78365;SDS011;67641;59.864;30.464;2023-06-14T01:43:35;7.97;;;4.72;;
78365;SDS011;67641;59.864;30.464;2023-06-14T01:46:03;6.18;;;4.35;;
78365;SDS011;67641;59.864;30.464;2023-06-14T01:48:35;6.85;;;4.30;;
78365;SDS011;67641;59.864;30.464;2023-06-14T01:51:02;6.60;;;3.90;;
78365;SDS011;67641;59.864;30.464;2023-06-14T02:34:56;4.30;;;3.20;;
78365;SDS011;67641;59.864;30.464;2023-06-14T02:39:09;5.75;;;3.20;;
78365;SDS011;67641;59.864;30.464;2023-06-14T02:41:36;7.38;;;3.70;;
78365;SDS011;67641;59.864;30.464;2023-06-14T02:44:03;7.70;;;3.40;;
78365;SDS011;67641;59.864;30.464;2023-06-14T02:46:29;5.47;;;3.47;;
78365;SDS011;67641;59.864;30.464;2023-06-14T02:48:55;6.78;;;3.90;;
78365;SDS011;67641;59.864;30.464;2023-06-14T02:51:22;5.03;;;3.67;;
78365;SDS011;67641;59.864;30.464;2023-06-14T02:53:48;4.75;;;2.80;;
78365;SDS011;67641;59.864;30.464;2023-06-14T02:58:54;4.88;;;3.38;;
78365;SDS011;67641;59.864;30.464;2023-06-14T03:01:21;4.82;;;2.83;;
78365;SDS011;67641;59.864;30.464;2023-06-14T03:03:48;5.55;;;3.30;;
78365;SDS011;67641;59.864;30.464;2023-06-14T03:06:15;4.68;;;3.20;;
78365;SDS011;67641;59.864;30.464;2023-06-14T03:08:42;7.53;;;3.40;;
78365;SDS011;67641;59.864;30.464;2023-06-14T03:11:10;4.95;;;3.03;;
78365;SDS011;67641;59.864;30.464;2023-06-14T03:13:36;5.28;;;3.42;;
78365;SDS011;67641;59.864;30.464;2023-06-14T03:41:26;6.97;;;2.88;;
78365;SDS011;67641;59.864;30.464;2023-06-14T03:43:52;5.40;;;2.95;;
78365;SDS011;67641;59.864;30.464;2023-06-14T03:46:19;5.05;;;2.80;;
78365;SDS011;67641;59.864;30.464;2023-06-14T03:48:45;4.30;;;2.75;;
78365;SDS011;67641;59.864;30.464;2023-06-14T03:51:12;5.85;;;3.10;;
78365;SDS011;67641;59.864;30.464;2023-06-14T03:53:38;6.47;;;3.13;;
78365;SDS011;67641;59.864;30.464;2023-06-14T03:56:04;5.22;;;3.30;;
78365;SDS011;67641;59.864;30.464;2023-06-14T03:58:31;4.88;;;3.40;;
78365;SDS011;67641;59.864;30.464;2023-06-14T04:01:23;5.55;;;3.35;;
78365;SDS011;67641;59.864;30.464;2023-06-14T04:03:52;6.68;;;3.10;;
78365;SDS011;67641;59.864;30.464;2023-06-14T04:06:19;6.40;;;3.00;;
78365;SDS011;67641;59.864;30.464;2023-06-14T04:08:45;5.45;;;3.13;;
78365;SDS011;67641;59.864;30.464;2023-06-14T04:11:15;7.65;;;4.00;;
78365;SDS011;67641;59.864;30.464;2023-06-14T04:13:42;5.05;;;3.33;;
78365;SDS011;67641;59.864;30.464;2023-06-14T04:16:08;6.22;;;3.40;;
78365;SDS011;67641;59.864;30.464;2023-06-14T04:21:20;5.85;;;3.33;;
78365;SDS011;67641;59.864;30.464;2023-06-14T04:23:49;6.60;;;3.70;;
78365;SDS011;67641;59.864;30.464;2023-06-14T04:26:18;6.85;;;3.60;;
78365;SDS011;67641;59.864;30.464;2023-06-14T04:28:46;4.80;;;2.97;;
78365;SDS011;67641;59.864;30.464;2023-06-14T04:31:14;4.55;;;3.08;;
78365;SDS011;67641;59.864;30.464;2023-06-14T04:33:42;7.82;;;3.25;;
78365;SDS011;67641;59.864;30.464;2023-06-14T04:36:09;6.60;;;2.80;;
78365;SDS011;67641;59.864;30.464;2023-06-14T04:41:22;5.18;;;3.03;;
78365;SDS011;67641;59.864;30.464;2023-06-14T04:44:00;6.00;;;3.70;;
78365;SDS011;67641;59.864;30.464;2023-06-14T04:46:30;5.55;;;3.17;;
78365;SDS011;67641;59.864;30.464;2023-06-14T04:48:58;5.30;;;3.15;;
78365;SDS011;67641;59.864;30.464;2023-06-14T04:51:28;4.72;;;3.50;;
78365;SDS011;67641;59.864;30.464;2023-06-14T04:53:59;5.80;;;3.03;;
78365;SDS011;67641;59.864;30.464;2023-06-14T04:56:27;5.68;;;3.03;;
78365;SDS011;67641;59.864;30.464;2023-06-14T05:01:33;6.63;;;5.00;;
78365;SDS011;67641;59.864;30.464;2023-06-14T05:04:01;8.10;;;5.82;;
78365;SDS011;67641;59.864;30.464;2023-06-14T05:06:28;6.68;;;5.68;;
78365;SDS011;67641;59.864;30.464;2023-06-14T05:08:56;7.50;;;6.50;;
78365;SDS011;67641;59.864;30.464;2023-06-14T05:11:23;11.13;;;7.05;;
78365;SDS011;67641;59.864;30.464;2023-06-14T05:13:50;9.30;;;7.10;;
78365;SDS011;67641;59.864;30.464;2023-06-14T05:16:17;8.73;;;7.70;;
78365;SDS011;67641;59.864;30.464;2023-06-14T05:18:45;8.88;;;7.97;;
78365;SDS011;67641;59.864;30.464;2023-06-14T05:21:39;8.40;;;5.40;;
78365;SDS011;67641;59.864;30.464;2023-06-14T05:24:06;9.25;;;7.05;;
78365;SDS011;67641;59.864;30.464;2023-06-14T05:26:35;9.30;;;6.95;;
78365;SDS011;67641;59.864;30.464;2023-06-14T05:29:02;7.75;;;6.13;;
78365;SDS011;67641;59.864;30.464;2023-06-14T05:31:29;9.45;;;7.70;;
78365;SDS011;67641;59.864;30.464;2023-06-14T05:33:56;8.27;;;6.68;;
78365;SDS011;67641;59.864;30.464;2023-06-14T05:36:23;9.25;;;6.88;;
78365;SDS011;67641;59.864;30.464;2023-06-14T05:41:37;9.00;;;6.45;;
78365;SDS011;67641;59.864;30.464;2023-06-14T05:44:04;8.50;;;6.25;;
78365;SDS011;67641;59.864;30.464;2023-06-14T05:46:31;7.72;;;4.88;;
78365;SDS011;67641;59.864;30.464;2023-06-14T05:48:58;12.48;;;7.30;;
78365;SDS011;67641;59.864;30.464;2023-06-14T05:51:24;10.93;;;7.80;;
78365;SDS011;67641;59.864;30.464;2023-06-14T05:53:52;10.52;;;7.53;;
78365;SDS011;67641;59.864;30.464;2023-06-14T05:56:19;9.00;;;7.22;;
78365;SDS011;67641;59.864;30.464;2023-06-14T06:28:33;8.60;;;5.72;;
78365;SDS011;67641;59.864;30.464;2023-06-14T06:31:01;7.32;;;5.60;;
78365;SDS011;67641;59.864;30.464;2023-06-14T06:33:27;8.38;;;5.68;;
78365;SDS011;67641;59.864;30.464;2023-06-14T06:35:54;7.20;;;5.65;;
78365;SDS011;67641;59.864;30.464;2023-06-14T06:38:21;8.50;;;5.15;;
78365;SDS011;67641;59.864;30.464;2023-06-14T06:40:48;8.88;;;5.32;;
78365;SDS011;67641;59.864;30.464;2023-06-14T06:43:15;7.55;;;4.97;;
78365;SDS011;67641;59.864;30.464;2023-06-14T06:48:16;5.88;;;5.03;;
78365;SDS011;67641;59.864;30.464;2023-06-14T06:50:43;5.70;;;4.70;;
78365;SDS011;67641;59.864;30.464;2023-06-14T06:53:11;7.25;;;4.40;;
78365;SDS011;67641;59.864;30.464;2023-06-14T06:55:38;6.18;;;4.70;;
78365;SDS011;67641;59.864;30.464;2023-06-14T06:58:04;8.07;;;5.15;;
78365;SDS011;67641;59.864;30.464;2023-06-14T07:00:31;4.90;;;4.07;;
78365;SDS011;67641;59.864;30.464;2023-06-14T07:02:58;6.35;;;5.00;;
78365;SDS011;67641;59.864;30.464;2023-06-14T07:08:06;6.30;;;4.78;;
78365;SDS011;67641;59.864;30.464;2023-06-14T07:10:33;9.40;;;5.20;;
78365;SDS011;67641;59.864;30.464;2023-06-14T07:13:00;7.55;;;4.45;;
78365;SDS011;67641;59.864;30.464;2023-06-14T07:15:27;6.57;;;5.25;;
78365;SDS011;67641;59.864;30.464;2023-06-14T07:17:54;8.55;;;5.40;;
78365;SDS011;67641;59.864;30.464;2023-06-14T07:20:25;6.80;;;5.00;;
78365;SDS011;67641;59.864;30.464;2023-06-14T07:22:52;7.95;;;6.55;;
78365;SDS011;67641;59.864;30.464;2023-06-14T07:27:47;8.98;;;7.10;;
78365;SDS011;67641;59.864;30.464;2023-06-14T07:30:14;9.77;;;7.75;;
78365;SDS011;67641;59.864;30.464;2023-06-14T07:32:41;10.38;;;7.10;;
78365;SDS011;67641;59.864;30.464;2023-06-14T07:35:08;8.82;;;6.65;;
78365;SDS011;67641;59.864;30.464;2023-06-14T08:02:04;11.63;;;8.88;;
78365;SDS011;67641;59.864;30.464;2023-06-14T08:04:31;11.82;;;9.80;;
78365;SDS011;67641;59.864;30.464;2023-06-14T08:09:00;12.15;;;8.10;;
78365;SDS011;67641;59.864;30.464;2023-06-14T08:11:27;10.23;;;8.43;;
78365;SDS011;67641;59.864;30.464;2023-06-14T08:13:54;17.95;;;9.15;;
78365;SDS011;67641;59.864;30.464;2023-06-14T08:16:21;14.45;;;9.13;;
78365;SDS011;67641;59.864;30.464;2023-06-14T08:18:48;12.00;;;8.45;;
78365;SDS011;67641;59.864;30.464;2023-06-14T08:21:15;12.02;;;8.65;;
78365;SDS011;67641;59.864;30.464;2023-06-14T08:23:42;11.63;;;8.73;;
78365;SDS011;67641;59.864;30.464;2023-06-14T08:26:11;11.48;;;8.57;;
78365;SDS011;67641;59.864;30.464;2023-06-14T08:28:57;10.95;;;8.70;;
78365;SDS011;67641;59.864;30.464;2023-06-14T08:31:24;14.68;;;9.05;;
78365;SDS011;67641;59.864;30.464;2023-06-14T08:33:51;10.77;;;8.23;;
78365;SDS011;67641;59.864;30.464;2023-06-14T08:36:18;10.57;;;8.57;;
78365;SDS011;67641;59.864;30.464;2023-06-14T08:38:45;10.43;;;8.23;;
78365;SDS011;67641;59.864;30.464;2023-06-14T08:41:11;13.20;;;8.82;;
78365;SDS011;67641;59.864;30.464;2023-06-14T08:43:42;13.77;;;8.95;;
78365;SDS011;67641;59.864;30.464;2023-06-14T08:48:49;16.55;;;9.93;;
78365;SDS011;67641;59.864;30.464;2023-06-14T08:51:20;12.70;;;9.07;;
78365;SDS011;67641;59.864;30.464;2023-06-14T08:53:51;16.08;;;9.75;;
78365;SDS011;67641;59.864;30.464;2023-06-14T08:56:25;10.60;;;8.90;;
78365;SDS011;67641;59.864;30.464;2023-06-14T08:58:55;12.13;;;8.23;;
78365;SDS011;67641;59.864;30.464;2023-06-14T09:10:10;10.73;;;6.57;;
78365;SDS011;67641;59.864;30.464;2023-06-14T09:15:30;11.55;;;6.97;;
78365;SDS011;67641;59.864;30.464;2023-06-14T09:20:38;11.70;;;6.80;;
78365;SDS011;67641;59.864;30.464;2023-06-14T09:23:07;9.15;;;6.47;;
78365;SDS011;67641;59.864;30.464;2023-06-14T09:25:41;11.20;;;6.65;;
78365;SDS011;67641;59.864;30.464;2023-06-14T09:28:09;9.68;;;6.90;;
78365;SDS011;67641;59.864;30.464;2023-06-14T09:30:39;11.38;;;6.95;;
78365;SDS011;67641;59.864;30.464;2023-06-14T09:33:05;13.73;;;6.40;;
78365;SDS011;67641;59.864;30.464;2023-06-14T09:35:32;9.77;;;6.82;;
78365;SDS011;67641;59.864;30.464;2023-06-14T09:41:00;8.45;;;6.43;;
78365;SDS011;67641;59.864;30.464;2023-06-14T09:43:29;8.63;;;6.68;;
78365;SDS011;67641;59.864;30.464;2023-06-14T09:46:02;8.88;;;6.00;;
78365;SDS011;67641;59.864;30.464;2023-06-14T09:48:30;10.68;;;6.22;;
78365;SDS011;67641;59.864;30.464;2023-06-14T09:50:56;6.75;;;5.68;;
78365;SDS011;67641;59.864;30.464;2023-06-14T09:53:24;10.63;;;5.43;;
78365;SDS011;67641;59.864;30.464;2023-06-14T09:55:51;9.88;;;5.22;;
78365;SDS011;67641;59.864;30.464;2023-06-14T10:00:55;7.82;;;5.30;;
78365;SDS011;67641;59.864;30.464;2023-06-14T10:03:28;10.07;;;5.50;;
78365;SDS011;67641;59.864;30.464;2023-06-14T10:05:55;8.95;;;5.40;;
78365;SDS011;67641;59.864;30.464;2023-06-14T10:08:27;9.48;;;5.47;;
78365;SDS011;67641;59.864;30.464;2023-06-14T10:10:56;10.73;;;5.82;;
78365;SDS011;67641;59.864;30.464;2023-06-14T10:13:23;9.88;;;5.60;;
78365;SDS011;67641;59.864;30.464;2023-06-14T10:21:08;7.32;;;5.88;;
78365;SDS011;67641;59.864;30.464;2023-06-14T10:24:03;8.35;;;6.15;;
78365;SDS011;67641;59.864;30.464;2023-06-14T10:26:32;8.35;;;5.75;;
78365;SDS011;67641;59.864;30.464;2023-06-14T10:29:00;11.15;;;6.20;;
78365;SDS011;67641;59.864;30.464;2023-06-14T10:31:42;9.27;;;5.18;;
78365;SDS011;67641;59.864;30.464;2023-06-14T10:34:10;10.38;;;5.80;;
78365;SDS011;67641;59.864;30.464;2023-06-14T10:36:41;11.00;;;6.03;;
78365;SDS011;67641;59.864;30.464;2023-06-14T10:41:37;7.97;;;5.45;;
78365;SDS011;67641;59.864;30.464;2023-06-14T10:46:41;10.55;;;6.18;;
78365;SDS011;67641;59.864;30.464;2023-06-14T10:49:12;11.35;;;5.13;;
78365;SDS011;67641;59.864;30.464;2023-06-14T10:51:44;8.10;;;5.20;;
78365;SDS011;67641;59.864;30.464;2023-06-14T10:54:12;9.65;;;6.15;;
78365;SDS011;67641;59.864;30.464;2023-06-14T10:56:46;7.80;;;5.25;;
78365;SDS011;67641;59.864;30.464;2023-06-14T11:01:38;8.27;;;5.10;;
78365;SDS011;67641;59.864;30.464;2023-06-14T11:04:13;8.77;;;4.85;;
78365;SDS011;67641;59.864;30.464;2023-06-14T11:06:47;10.43;;;5.20;;
78365;SDS011;67641;59.864;30.464;2023-06-14T11:12:09;9.88;;;5.30;;
78365;SDS011;67641;59.864;30.464;2023-06-14T11:14:38;8.75;;;4.65;;
78365;SDS011;67641;59.864;30.464;2023-06-14T11:17:05;8.73;;;4.50;;
78365;SDS011;67641;59.864;30.464;2023-06-14T11:21:31;8.25;;;4.68;;
78365;SDS011;67641;59.864;30.464;2023-06-14T11:23:58;8.30;;;5.28;;
78365;SDS011;67641;59.864;30.464;2023-06-14T11:26:28;9.32;;;4.90;;
78365;SDS011;67641;59.864;30.464;2023-06-14T11:28:56;8.48;;;5.40;;
78365;SDS011;67641;59.864;30.464;2023-06-14T11:31:27;7.82;;;4.70;;
78365;SDS011;67641;59.864;30.464;2023-06-14T11:33:58;6.55;;;4.80;;
78365;SDS011;67641;59.864;30.464;2023-06-14T11:36:31;7.07;;;3.97;;
78365;SDS011;67641;59.864;30.464;2023-06-14T11:39:00;7.57;;;4.57;;
78365;SDS011;67641;59.864;30.464;2023-06-14T11:41:57;6.35;;;3.72;;
78365;SDS011;67641;59.864;30.464;2023-06-14T11:44:26;6.30;;;4.00;;
78365;SDS011;67641;59.864;30.464;2023-06-14T11:46:53;7.38;;;3.80;;
78365;SDS011;67641;59.864;30.464;2023-06-14T11:49:20;5.78;;;3.42;;
78365;SDS011;67641;59.864;30.464;2023-06-14T11:51:46;4.85;;;3.60;;
78365;SDS011;67641;59.864;30.464;2023-06-14T11:54:13;5.28;;;3.50;;
78365;SDS011;67641;59.864;30.464;2023-06-14T11:56:39;6.35;;;3.20;;
78365;SDS011;67641;59.864;30.464;2023-06-14T12:01:55;5.28;;;3.40;;
78365;SDS011;67641;59.864;30.464;2023-06-14T12:10:08;6.32;;;4.00;;
78365;SDS011;67641;59.864;30.464;2023-06-14T12:12:37;7.85;;;3.30;;
78365;SDS011;67641;59.864;30.464;2023-06-14T12:15:06;5.20;;;3.38;;
78365;SDS011;67641;59.864;30.464;2023-06-14T12:20:06;6.50;;;2.72;;
78365;SDS011;67641;59.864;30.464;2023-06-14T12:24:29;7.38;;;3.63;;
78365;SDS011;67641;59.864;30.464;2023-06-14T12:26:59;6.82;;;4.00;;
78365;SDS011;67641;59.864;30.464;2023-06-14T12:29:26;5.05;;;3.60;;
78365;SDS011;67641;59.864;30.464;2023-06-14T12:31:53;4.05;;;3.10;;
78365;SDS011;67641;59.864;30.464;2023-06-14T12:34:20;7.78;;;4.15;;
78365;SDS011;67641;59.864;30.464;2023-06-14T12:36:53;6.28;;;3.92;;
78365;SDS011;67641;59.864;30.464;2023-06-14T12:39:20;8.95;;;3.85;;
78365;SDS011;67641;59.864;30.464;2023-06-14T12:44:28;8.13;;;4.15;;
78365;SDS011;67641;59.864;30.464;2023-06-14T12:46:55;5.10;;;3.75;;
78365;SDS011;67641;59.864;30.464;2023-06-14T12:49:21;8.85;;;3.95;;
78365;SDS011;67641;59.864;30.464;2023-06-14T12:51:48;7.88;;;4.03;;
78365;SDS011;67641;59.864;30.464;2023-06-14T12:54:15;7.18;;;4.13;;
78365;SDS011;67641;59.864;30.464;2023-06-14T12:56:43;6.32;;;4.35;;
78365;SDS011;67641;59.864;30.464;2023-06-14T12:59:10;6.25;;;4.40;;
78365;SDS011;67641;59.864;30.464;2023-06-14T13:01:37;8.10;;;3.75;;
78365;SDS011;67641;59.864;30.464;2023-06-14T13:05:56;6.97;;;4.55;;
78365;SDS011;67641;59.864;30.464;2023-06-14T13:08:23;8.65;;;3.67;;
78365;SDS011;67641;59.864;30.464;2023-06-14T13:10:50;5.65;;;4.72;;
78365;SDS011;67641;59.864;30.464;2023-06-14T13:13:17;5.85;;;4.25;;
78365;SDS011;67641;59.864;30.464;2023-06-14T13:15:44;7.80;;;3.80;;
78365;SDS011;67641;59.864;30.464;2023-06-14T13:18:12;6.22;;;4.45;;
78365;SDS011;67641;59.864;30.464;2023-06-14T13:20:45;6.22;;;3.78;;
78365;SDS011;67641;59.864;30.464;2023-06-14T13:23:13;6.95;;;3.65;;
78365;SDS011;67641;59.864;30.464;2023-06-14T13:28:21;5.45;;;3.45;;
78365;SDS011;67641;59.864;30.464;2023-06-14T13:30:48;5.35;;;3.50;;
78365;SDS011;67641;59.864;30.464;2023-06-14T13:33:16;7.82;;;3.30;;
78365;SDS011;67641;59.864;30.464;2023-06-14T13:35:42;8.98;;;3.70;;
78365;SDS011;67641;59.864;30.464;2023-06-14T13:38:09;6.70;;;3.58;;
78365;SDS011;67641;59.864;30.464;2023-06-14T13:40:37;7.13;;;3.38;;
78365;SDS011;67641;59.864;30.464;2023-06-14T13:43:04;6.80;;;3.80;;
78365;SDS011;67641;59.864;30.464;2023-06-14T13:48:07;7.05;;;3.70;;
78365;SDS011;67641;59.864;30.464;2023-06-14T13:50:34;6.93;;;3.53;;
78365;SDS011;67641;59.864;30.464;2023-06-14T13:53:01;6.53;;;3.65;;
78365;SDS011;67641;59.864;30.464;2023-06-14T13:55:28;7.70;;;3.75;;
78365;SDS011;67641;59.864;30.464;2023-06-14T13:57:55;5.75;;;3.60;;
78365;SDS011;67641;59.864;30.464;2023-06-14T14:00:23;10.55;;;3.90;;
78365;SDS011;67641;59.864;30.464;2023-06-14T14:02:50;19.25;;;5.40;;
78365;SDS011;67641;59.864;30.464;2023-06-14T14:06:26;6.70;;;3.90;;
78365;SDS011;67641;59.864;30.464;2023-06-14T14:08:53;46.20;;;14.30;;
78365;SDS011;67641;59.864;30.464;2023-06-14T14:11:19;32.17;;;11.57;;
78365;SDS011;67641;59.864;30.464;2023-06-14T14:13:46;42.47;;;13.18;;
78365;SDS011;67641;59.864;30.464;2023-06-14T14:16:13;10.98;;;4.60;;
78365;SDS011;67641;59.864;30.464;2023-06-14T14:18:40;7.80;;;4.68;;
78365;SDS011;67641;59.864;30.464;2023-06-14T14:21:07;5.72;;;3.72;;
78365;SDS011;67641;59.864;30.464;2023-06-14T14:23:35;32.75;;;10.60;;
78365;SDS011;67641;59.864;30.464;2023-06-14T14:36:47;8.90;;;4.18;;
78365;SDS011;67641;59.864;30.464;2023-06-14T14:39:15;13.00;;;6.25;;
78365;SDS011;67641;59.864;30.464;2023-06-14T14:41:42;16.05;;;6.57;;
78365;SDS011;67641;59.864;30.464;2023-06-14T14:47:13;14.00;;;5.60;;
78365;SDS011;67641;59.864;30.464;2023-06-14T14:49:40;12.00;;;4.85;;
78365;SDS011;67641;59.864;30.464;2023-06-14T14:54:37;17.17;;;6.78;;
78365;SDS011;67641;59.864;30.464;2023-06-14T14:57:03;10.82;;;5.13;;
78365;SDS011;67641;59.864;30.464;2023-06-14T14:59:31;10.75;;;5.93;;
78365;SDS011;67641;59.864;30.464;2023-06-14T15:01:58;7.90;;;4.90;;
78365;SDS011;67641;59.864;30.464;2023-06-14T15:04:24;11.90;;;5.82;;
78365;SDS011;67641;59.864;30.464;2023-06-14T15:06:51;9.55;;;6.00;;
78365;SDS011;67641;59.864;30.464;2023-06-14T15:09:18;11.55;;;5.30;;
78365;SDS011;67641;59.864;30.464;2023-06-14T15:14:33;11.77;;;5.65;;
78365;SDS011;67641;59.864;30.464;2023-06-14T15:17:00;10.98;;;5.47;;
78365;SDS011;67641;59.864;30.464;2023-06-14T15:19:33;8.10;;;4.97;;
78365;SDS011;67641;59.864;30.464;2023-06-14T15:22:02;10.95;;;4.75;;
78365;SDS011;67641;59.864;30.464;2023-06-14T15:24:29;12.02;;;5.60;;
78365;SDS011;67641;59.864;30.464;2023-06-14T15:26:57;11.10;;;4.93;;
78365;SDS011;67641;59.864;30.464;2023-06-14T15:29:23;10.80;;;4.97;;
78365;SDS011;67641;59.864;30.464;2023-06-14T15:31:50;10.43;;;5.65;;
78365;SDS011;67641;59.864;30.464;2023-06-14T15:35:01;9.38;;;5.10;;
78365;SDS011;67641;59.864;30.464;2023-06-14T15:37:28;9.20;;;5.07;;
78365;SDS011;67641;59.864;30.464;2023-06-14T15:39:56;9.25;;;4.97;;
78365;SDS011;67641;59.864;30.464;2023-06-14T15:42:22;10.85;;;4.97;;
78365;SDS011;67641;59.864;30.464;2023-06-14T15:44:49;8.80;;;4.97;;
78365;SDS011;67641;59.864;30.464;2023-06-14T15:47:16;12.23;;;6.20;;
78365;SDS011;67641;59.864;30.464;2023-06-14T15:49:42;9.10;;;5.18;;
78365;SDS011;67641;59.864;30.464;2023-06-14T15:52:09;9.25;;;5.28;;
78365;SDS011;67641;59.864;30.464;2023-06-14T15:54:56;10.20;;;5.88;;
78365;SDS011;67641;59.864;30.464;2023-06-14T15:57:23;12.05;;;6.03;;
78365;SDS011;67641;59.864;30.464;2023-06-14T15:59:50;8.32;;;6.18;;
78365;SDS011;67641;59.864;30.464;2023-06-14T16:02:17;8.40;;;5.03;;
78365;SDS011;67641;59.864;30.464;2023-06-14T16:04:47;10.40;;;6.25;;
78365;SDS011;67641;59.864;30.464;2023-06-14T16:07:14;12.48;;;6.30;;
78365;SDS011;67641;59.864;30.464;2023-06-14T16:09:41;9.30;;;6.25;;
78365;SDS011;67641;59.864;30.464;2023-06-14T16:14:51;9.63;;;5.38;;
78365;SDS011;67641;59.864;30.464;2023-06-14T16:17:18;10.93;;;5.15;;
78365;SDS011;67641;59.864;30.464;2023-06-14T16:19:45;12.60;;;5.10;;
78365;SDS011;67641;59.864;30.464;2023-06-14T16:22:12;11.05;;;5.13;;
78365;SDS011;67641;59.864;30.464;2023-06-14T16:24:39;9.23;;;5.03;;
78365;SDS011;67641;59.864;30.464;2023-06-14T16:27:09;10.70;;;5.32;;
78365;SDS011;67641;59.864;30.464;2023-06-14T16:31:49;9.38;;;4.82;;
78365;SDS011;67641;59.864;30.464;2023-06-14T16:39:12;11.73;;;5.57;;
78365;SDS011;67641;59.864;30.464;2023-06-14T16:44:17;11.02;;;6.35;;
78365;SDS011;67641;59.864;30.464;2023-06-14T16:46:53;9.00;;;6.07;;
78365;SDS011;67641;59.864;30.464;2023-06-14T16:49:26;14.82;;;6.63;;
78365;SDS011;67641;59.864;30.464;2023-06-14T16:51:53;10.20;;;6.20;;
78365;SDS011;67641;59.864;30.464;2023-06-14T16:54:22;11.85;;;6.80;;
78365;SDS011;67641;59.864;30.464;2023-06-14T16:56:49;12.75;;;7.68;;
78365;SDS011;67641;59.864;30.464;2023-06-14T17:01:45;9.07;;;6.07;;
78365;SDS011;67641;59.864;30.464;2023-06-14T17:04:18;9.57;;;6.63;;
78365;SDS011;67641;59.864;30.464;2023-06-14T17:06:47;11.32;;;7.20;;
78365;SDS011;67641;59.864;30.464;2023-06-14T17:09:14;12.02;;;7.15;;
78365;SDS011;67641;59.864;30.464;2023-06-14T17:11:47;11.70;;;6.85;;
78365;SDS011;67641;59.864;30.464;2023-06-14T17:17:57;12.13;;;7.18;;
78365;SDS011;67641;59.864;30.464;2023-06-14T17:27:01;11.27;;;7.50;;
78365;SDS011;67641;59.864;30.464;2023-06-14T17:29:29;15.00;;;8.30;;
78365;SDS011;67641;59.864;30.464;2023-06-14T17:31:56;10.40;;;8.80;;
78365;SDS011;67641;59.864;30.464;2023-06-14T17:34:24;9.93;;;7.90;;
78365;SDS011;67641;59.864;30.464;2023-06-14T17:36:52;10.57;;;7.65;;
78365;SDS011;67641;59.864;30.464;2023-06-14T17:39:20;12.15;;;8.05;;
78365;SDS011;67641;59.864;30.464;2023-06-14T17:41:47;9.95;;;8.05;;
78365;SDS011;67641;59.864;30.464;2023-06-14T17:46:50;10.27;;;8.13;;
78365;SDS011;67641;59.864;30.464;2023-06-14T17:49:17;11.73;;;7.65;;
78365;SDS011;67641;59.864;30.464;2023-06-14T17:51:49;11.65;;;7.40;;
78365;SDS011;67641;59.864;30.464;2023-06-14T17:54:16;11.25;;;7.88;;
78365;SDS011;67641;59.864;30.464;2023-06-14T17:56:42;10.00;;;7.90;;
78365;SDS011;67641;59.864;30.464;2023-06-14T17:59:09;12.30;;;7.85;;
78365;SDS011;67641;59.864;30.464;2023-06-14T18:01:36;13.80;;;9.63;;
78365;SDS011;67641;59.864;30.464;2023-06-14T18:04:08;11.57;;;8.13;;
78365;SDS011;67641;59.864;30.464;2023-06-14T18:07:34;11.93;;;8.48;;
78365;SDS011;67641;59.864;30.464;2023-06-14T18:10:02;9.68;;;7.85;;
78365;SDS011;67641;59.864;30.464;2023-06-14T18:12:29;9.60;;;7.72;;
78365;SDS011;67641;59.864;30.464;2023-06-14T18:14:56;11.68;;;7.82;;
78365;SDS011;67641;59.864;30.464;2023-06-14T18:17:22;10.43;;;8.05;;
78365;SDS011;67641;59.864;30.464;2023-06-14T18:19:49;14.45;;;8.48;;
78365;SDS011;67641;59.864;30.464;2023-06-14T18:22:16;10.95;;;9.40;;
78365;SDS011;67641;59.864;30.464;2023-06-14T18:27:21;14.52;;;9.25;;
78365;SDS011;67641;59.864;30.464;2023-06-14T18:29:48;10.77;;;9.20;;
78365;SDS011;67641;59.864;30.464;2023-06-14T18:32:15;11.38;;;9.13;;
78365;SDS011;67641;59.864;30.464;2023-06-14T18:34:42;11.80;;;9.15;;
78365;SDS011;67641;59.864;30.464;2023-06-14T18:37:09;12.95;;;9.13;;
78365;SDS011;67641;59.864;30.464;2023-06-14T18:39:36;10.73;;;8.98;;
78365;SDS011;67641;59.864;30.464;2023-06-14T18:42:03;13.05;;;8.80;;
78365;SDS011;67641;59.864;30.464;2023-06-14T18:44:30;12.75;;;8.80;;
78365;SDS011;67641;59.864;30.464;2023-06-14T18:47:22;10.52;;;8.23;;
78365;SDS011;67641;59.864;30.464;2023-06-14T18:49:49;12.80;;;8.48;;
78365;SDS011;67641;59.864;30.464;2023-06-14T18:52:16;13.38;;;9.85;;
78365;SDS011;67641;59.864;30.464;2023-06-14T18:54:43;12.45;;;8.60;;
78365;SDS011;67641;59.864;30.464;2023-06-14T18:57:11;14.20;;;9.52;;
78365;SDS011;67641;59.864;30.464;2023-06-14T18:59:39;11.27;;;8.93;;
78365;SDS011;67641;59.864;30.464;2023-06-14T19:02:06;13.38;;;9.18;;
78365;SDS011;67641;59.864;30.464;2023-06-14T19:07:15;10.23;;;8.05;;
78365;SDS011;67641;59.864;30.464;2023-06-14T19:09:42;12.27;;;9.10;;
78365;SDS011;67641;59.864;30.464;2023-06-14T19:12:09;13.93;;;8.57;;
78365;SDS011;67641;59.864;30.464;2023-06-14T19:14:37;10.02;;;7.50;;
78365;SDS011;67641;59.864;30.464;2023-06-14T19:17:12;12.25;;;7.30;;
78365;SDS011;67641;59.864;30.464;2023-06-14T19:20:14;11.25;;;7.32;;
78365;SDS011;67641;59.864;30.464;2023-06-14T19:22:41;9.95;;;7.22;;
78365;SDS011;67641;59.864;30.464;2023-06-14T19:28:04;10.95;;;9.73;;
78365;SDS011;67641;59.864;30.464;2023-06-14T19:30:32;10.85;;;8.50;;
78365;SDS011;67641;59.864;30.464;2023-06-14T19:32:59;12.32;;;8.85;;
78365;SDS011;67641;59.864;30.464;2023-06-14T19:35:26;10.25;;;7.93;;